createdAt,value
2023-01-17T00:02:09.851Z,94197.47
2023-01-17T00:04:55.397Z,94200.09
2023-01-17T00:07:41.517Z,94195.41
2023-01-17T00:10:09.760Z,94203.22
2023-01-17T00:12:36.756Z,94201.81
2023-01-17T00:15:04.052Z,94208.94
2023-01-17T00:17:31.019Z,94205.94
2023-01-17T00:20:18.645Z,94206.94
2023-01-17T00:23:05.723Z,94211.03
2023-01-17T00:25:53.747Z,94220.38
2023-01-17T00:28:20.598Z,94224.72
2023-01-17T00:30:47.583Z,94223.44
2023-01-17T00:33:14.435Z,94219.97
2023-01-17T00:35:41.373Z,94221.78
2023-01-17T00:38:12.433Z,94228.66
2023-01-17T00:40:40.748Z,94227.13
2023-01-17T00:43:26.603Z,94231.00
2023-01-17T00:46:12.191Z,94233.19
2023-01-17T00:48:57.818Z,94229.97
2023-01-17T00:51:43.868Z,94235.31
2023-01-17T00:54:29.509Z,94242.59
2023-01-17T00:57:15.259Z,94247.56
2023-01-17T01:00:00.637Z,94242.03
2023-01-17T01:02:46.307Z,94247.63
2023-01-17T01:05:32.088Z,94251.38
2023-01-17T01:08:17.627Z,94250.56
2023-01-17T01:11:03.745Z,94250.00
2023-01-17T01:13:49.686Z,94247.16
2023-01-17T01:16:35.793Z,94252.31
2023-01-17T01:19:22.093Z,94250.06
2023-01-17T01:22:07.804Z,94266.88
2023-01-17T01:24:53.697Z,94263.69
2023-01-17T01:27:39.205Z,94267.84
2023-01-17T01:30:25.125Z,94264.31
2023-01-17T01:33:10.437Z,94263.22
2023-01-17T01:35:37.388Z,94265.50
2023-01-17T01:38:04.278Z,94267.44
2023-01-17T01:40:31.337Z,94274.38
2023-01-17T01:42:59.828Z,94277.34
2023-01-17T01:45:30.384Z,94274.09
2023-01-17T01:48:04.089Z,94291.59
2023-01-17T01:50:31.147Z,94285.19
2023-01-17T01:52:59.968Z,94275.28
2023-01-17T01:55:32.963Z,94284.03
2023-01-17T01:58:02.370Z,94281.72
2023-01-17T02:00:31.058Z,94280.06
2023-01-17T02:02:59.802Z,94283.94
2023-01-17T02:05:28.586Z,94291.16
2023-01-17T02:08:10.472Z,94274.34
2023-01-17T02:10:38.615Z,94287.28
2023-01-17T02:13:06.311Z,94279.94
2023-01-17T02:15:39.515Z,94283.47
2023-01-17T02:18:32.825Z,94270.97
2023-01-17T02:21:22.450Z,94273.72
2023-01-17T02:24:00.416Z,94282.22
2023-01-17T02:27:01.550Z,94288.06
2023-01-17T02:29:55.505Z,94279.72
2023-01-17T02:32:34.718Z,94279.19
2023-01-17T02:35:07.568Z,94277.66
2023-01-17T02:37:43.578Z,94283.13
2023-01-17T02:40:16.720Z,94279.28
2023-01-17T02:42:50.778Z,94280.19
2023-01-17T02:45:18.128Z,94280.94
2023-01-17T02:47:45.115Z,94291.09
2023-01-17T02:50:20.804Z,94290.22
2023-01-17T02:52:56.664Z,94290.31
2023-01-17T02:56:00.917Z,94286.13
2023-01-17T02:58:40.016Z,94294.31
2023-01-17T03:01:46.064Z,94285.47
2023-01-17T03:04:32.510Z,94287.66
2023-01-17T03:07:01.998Z,94287.09
2023-01-17T03:09:29.449Z,94287.66
2023-01-17T03:11:56.390Z,94287.38
2023-01-17T03:14:23.342Z,94282.19
2023-01-17T03:16:50.352Z,94290.81
2023-01-17T03:19:17.321Z,94283.00
2023-01-17T03:21:44.369Z,94291.78
2023-01-17T03:24:11.350Z,94297.09
2023-01-17T03:26:38.557Z,94296.41
2023-01-17T03:29:05.464Z,94303.22
2023-01-17T03:31:32.450Z,94300.22
2023-01-17T03:33:59.356Z,94295.19
2023-01-17T03:36:26.341Z,94298.72
2023-01-17T03:38:53.285Z,94311.59
2023-01-17T03:41:20.230Z,94316.97
2023-01-17T03:43:47.177Z,94324.34
2023-01-17T03:46:27.505Z,94312.72
2023-01-17T03:48:54.552Z,94315.78
2023-01-17T03:51:21.529Z,94319.84
2023-01-17T03:53:48.508Z,94322.69
2023-01-17T03:56:15.424Z,94325.78
2023-01-17T03:58:42.546Z,94331.34
2023-01-17T04:01:09.653Z,94329.72
2023-01-17T04:03:36.664Z,94330.56
2023-01-17T04:06:03.915Z,94330.81
2023-01-17T04:08:30.921Z,94329.94
2023-01-17T04:10:57.930Z,94328.00
2023-01-17T04:13:24.839Z,94329.84
2023-01-17T04:15:51.852Z,94326.50
2023-01-17T04:18:19.542Z,94333.34
2023-01-17T04:20:46.511Z,94343.06
2023-01-17T04:23:13.632Z,94340.44
2023-01-17T04:25:40.629Z,94344.06
2023-01-17T04:28:07.586Z,94336.16
2023-01-17T04:30:34.837Z,94341.00
2023-01-17T04:33:01.812Z,94344.16
2023-01-17T04:35:31.714Z,94340.25
2023-01-17T04:37:58.656Z,94342.06
2023-01-17T04:40:26.597Z,94343.31
2023-01-17T04:42:54.431Z,94340.28
2023-01-17T04:45:21.347Z,94344.13
2023-01-17T04:47:48.387Z,94340.06
2023-01-17T04:50:15.363Z,94342.22
2023-01-17T04:52:42.370Z,94341.84
2023-01-17T04:55:09.529Z,94337.50
2023-01-17T04:57:36.470Z,94345.31
2023-01-17T05:00:03.789Z,94349.09
2023-01-17T05:02:31.140Z,94353.22
2023-01-17T05:04:58.164Z,94359.44
2023-01-17T05:07:25.411Z,94359.34
2023-01-17T05:09:52.418Z,94358.72
2023-01-17T05:12:19.358Z,94354.19
2023-01-17T05:14:46.277Z,94352.94
2023-01-17T05:17:13.227Z,94346.19
2023-01-17T05:19:40.245Z,94349.16
2023-01-17T05:22:15.311Z,94355.47
2023-01-17T05:24:43.930Z,94347.88
2023-01-17T05:27:11.680Z,94355.19
2023-01-17T05:29:38.933Z,94354.44
2023-01-17T05:32:06.206Z,94360.81
2023-01-17T05:34:33.251Z,94359.72
2023-01-17T05:37:00.221Z,94366.44
2023-01-17T05:39:27.197Z,94368.88
2023-01-17T05:41:54.213Z,94376.53
2023-01-17T05:44:21.360Z,94379.63
2023-01-17T05:46:48.352Z,94386.94
2023-01-17T05:49:15.287Z,94386.25
2023-01-17T05:51:42.530Z,94386.59
2023-01-17T05:54:09.412Z,94389.34
2023-01-17T05:56:36.395Z,94393.69
2023-01-17T05:59:03.316Z,94394.13
2023-01-17T06:01:30.312Z,94393.06
2023-01-17T06:03:57.206Z,94396.09
2023-01-17T06:06:24.200Z,94403.56
2023-01-17T06:08:51.252Z,94398.59
2023-01-17T06:11:18.817Z,94398.94
2023-01-17T06:13:45.852Z,94396.56
2023-01-17T06:16:12.914Z,94395.28
2023-01-17T06:18:39.873Z,94401.19
2023-01-17T06:21:06.810Z,94397.19
2023-01-17T06:23:33.820Z,94391.63
2023-01-17T06:26:03.533Z,94386.50
2023-01-17T06:28:30.482Z,94383.88
2023-01-17T06:30:57.460Z,94382.53
2023-01-17T06:33:24.609Z,94384.22
2023-01-17T06:35:52.529Z,94387.22
2023-01-17T06:38:19.604Z,94391.34
2023-01-17T06:40:46.555Z,94385.84
2023-01-17T06:43:13.489Z,94373.69
2023-01-17T06:45:40.514Z,94374.47
2023-01-17T06:48:07.443Z,94372.53
2023-01-17T06:50:34.469Z,94382.41
2023-01-17T06:53:02.903Z,94387.47
2023-01-17T06:55:30.254Z,94389.91
2023-01-17T06:57:57.795Z,94386.66
2023-01-17T07:00:25.263Z,94367.72
2023-01-17T07:02:52.449Z,94368.59
2023-01-17T07:05:19.639Z,94362.16
2023-01-17T07:07:46.692Z,94371.69
2023-01-17T07:10:14.280Z,94372.16
2023-01-17T07:12:41.334Z,94369.84
2023-01-17T07:15:08.840Z,94374.94
2023-01-17T07:17:35.768Z,94372.94
2023-01-17T07:20:02.782Z,94381.38
2023-01-17T07:22:29.914Z,94382.63
2023-01-17T07:24:58.820Z,94389.91
2023-01-17T07:27:27.798Z,94377.94
2023-01-17T07:29:54.956Z,94375.72
2023-01-17T07:32:22.007Z,94367.78
2023-01-17T07:34:48.949Z,94370.47
2023-01-17T07:37:15.894Z,94370.19
2023-01-17T07:39:42.841Z,94369.19
2023-01-17T07:42:09.729Z,94369.75
2023-01-17T07:44:36.777Z,94363.78
2023-01-17T07:47:04.421Z,94359.16
2023-01-17T07:49:31.426Z,94364.84
2023-01-17T07:51:58.361Z,94363.06
2023-01-17T07:54:25.349Z,94374.13
2023-01-17T07:56:52.267Z,94365.72
2023-01-17T07:59:19.314Z,94358.59
2023-01-17T08:01:47.665Z,94363.50
2023-01-17T08:04:14.775Z,94362.41
2023-01-17T08:06:43.010Z,94372.50
2023-01-17T08:09:09.933Z,94361.13
2023-01-17T08:11:37.031Z,94359.41
2023-01-17T08:14:03.971Z,94351.50
2023-01-17T08:16:30.937Z,94353.84
2023-01-17T08:18:57.908Z,94353.59
2023-01-17T08:21:24.945Z,94352.41
2023-01-17T08:23:52.224Z,94344.28
2023-01-17T08:26:22.759Z,94342.81
2023-01-17T08:28:55.447Z,94336.75
2023-01-17T08:31:22.509Z,94339.88
2023-01-17T08:33:49.478Z,94334.97
2023-01-17T08:36:16.622Z,94335.94
2023-01-17T08:38:43.588Z,94329.69
2023-01-17T08:41:10.618Z,94332.25
2023-01-17T08:43:37.580Z,94322.34
2023-01-17T08:46:06.438Z,94327.00
2023-01-17T08:48:33.523Z,94326.38
2023-01-17T08:51:01.859Z,94333.13
2023-01-17T08:53:28.958Z,94329.66
2023-01-17T08:55:59.761Z,94338.19
2023-01-17T08:58:30.315Z,94351.81
2023-01-17T09:01:05.055Z,94342.97
2023-01-17T09:03:32.457Z,94338.31
2023-01-17T09:06:09.654Z,94340.94
2023-01-17T09:08:36.646Z,94347.78
2023-01-17T09:11:10.764Z,94354.94
2023-01-17T09:13:38.318Z,94351.53
2023-01-17T09:16:05.529Z,94360.09
2023-01-17T09:18:32.970Z,94353.19
2023-01-17T09:20:59.975Z,94356.56
2023-01-17T09:23:27.623Z,94348.81
2023-01-17T09:25:54.928Z,94350.06
2023-01-17T09:28:22.028Z,94356.44
2023-01-17T09:30:49.069Z,94355.31
2023-01-17T09:33:16.096Z,94348.91
2023-01-17T09:35:43.161Z,94348.69
2023-01-17T09:38:10.317Z,94342.72
2023-01-17T09:40:44.867Z,94343.16
2023-01-17T09:43:34.172Z,94348.59
2023-01-17T09:46:01.373Z,94334.78
2023-01-17T09:48:38.907Z,94338.31
2023-01-17T09:51:21.733Z,94337.34
2023-01-17T09:53:48.677Z,94337.66
2023-01-17T09:56:29.674Z,94326.44
2023-01-17T09:59:19.722Z,94326.41
2023-01-17T10:02:05.599Z,94326.59
2023-01-17T10:04:55.836Z,94322.06
2023-01-17T10:07:33.228Z,94306.47
2023-01-17T10:10:12.252Z,94304.22
2023-01-17T10:13:07.779Z,94299.94
2023-01-17T10:15:47.998Z,94287.25
2023-01-17T10:18:33.420Z,94277.22
2023-01-17T10:21:25.028Z,94270.00
2023-01-17T10:24:13.742Z,94259.97
2023-01-17T10:26:42.072Z,94250.13
2023-01-17T10:29:20.071Z,94243.31
2023-01-17T10:31:54.333Z,94243.75
2023-01-17T10:34:41.302Z,94239.13
2023-01-17T10:37:30.415Z,94237.84
2023-01-17T10:39:58.167Z,94250.69
2023-01-17T10:42:48.988Z,94249.91
2023-01-17T10:45:18.673Z,94243.91
2023-01-17T10:47:48.280Z,94244.72
2023-01-17T10:50:15.430Z,94237.84
2023-01-17T10:52:53.982Z,94234.88
2023-01-17T10:55:40.037Z,94239.84
2023-01-17T10:58:11.357Z,94240.34
2023-01-17T11:00:46.443Z,94243.06
2023-01-17T11:03:14.981Z,94238.00
2023-01-17T11:05:42.848Z,94231.69
2023-01-17T11:08:09.769Z,94230.47
2023-01-17T11:10:42.539Z,94215.38
2023-01-17T11:13:21.313Z,94215.22
2023-01-17T11:15:51.249Z,94214.63
2023-01-17T11:18:22.108Z,94209.78
2023-01-17T11:20:49.572Z,94200.31
2023-01-17T11:23:29.944Z,94200.50
2023-01-17T11:25:58.591Z,94194.22
2023-01-17T11:28:30.658Z,94186.88
2023-01-17T11:31:03.648Z,94187.22
2023-01-17T11:33:48.247Z,94182.13
2023-01-17T11:36:28.141Z,94177.81
2023-01-17T11:38:56.517Z,94170.38
2023-01-17T11:41:28.244Z,94165.13
2023-01-17T11:43:58.243Z,94157.41
2023-01-17T11:46:25.565Z,94162.81
2023-01-17T11:48:56.147Z,94156.25
2023-01-17T11:51:33.065Z,94149.66
2023-01-17T11:54:17.591Z,94140.38
2023-01-17T11:56:46.434Z,94141.19
2023-01-17T11:59:25.208Z,94134.03
2023-01-17T12:02:20.198Z,94140.44
2023-01-17T12:05:15.509Z,94129.66
2023-01-17T12:08:02.739Z,94126.00
2023-01-17T12:11:00.255Z,94126.00
2023-01-17T12:14:01.046Z,94131.38
2023-01-17T12:16:49.458Z,94127.19
2023-01-17T12:19:25.458Z,94115.75
2023-01-17T12:22:35.212Z,94114.72
2023-01-17T12:25:02.083Z,94110.81
2023-01-17T12:27:47.050Z,94111.25
2023-01-17T12:30:41.982Z,94109.59
2023-01-17T12:33:33.804Z,94104.13
2023-01-17T12:36:17.698Z,94094.00
2023-01-17T12:38:46.060Z,94090.69
2023-01-17T12:41:15.805Z,94088.41
2023-01-17T12:43:43.663Z,94088.88
2023-01-17T12:46:29.294Z,94081.06
2023-01-17T12:49:14.979Z,94078.34
2023-01-17T12:51:41.889Z,94075.63
2023-01-17T12:54:16.341Z,94073.22
2023-01-17T12:56:52.730Z,94059.28
2023-01-17T12:59:27.131Z,94060.34
2023-01-17T13:01:58.218Z,94052.22
2023-01-17T13:04:28.823Z,94040.00
2023-01-17T13:07:10.589Z,94039.25
2023-01-17T13:09:44.294Z,94028.56
2023-01-17T13:12:13.997Z,94023.09
2023-01-17T13:14:41.198Z,94028.97
2023-01-17T13:17:39.867Z,94014.16
2023-01-17T13:20:16.710Z,94018.03
2023-01-17T13:22:43.664Z,94019.63
2023-01-17T13:25:30.851Z,94011.84
2023-01-17T13:28:03.887Z,94008.84
2023-01-17T13:31:09.010Z,94007.47
2023-01-17T13:33:45.061Z,94007.56
2023-01-17T13:36:19.010Z,94012.84
2023-01-17T13:39:13.755Z,94007.63
2023-01-17T13:41:56.711Z,94001.28
2023-01-17T13:44:25.662Z,94003.06
2023-01-17T13:46:58.656Z,94006.72
2023-01-17T13:49:34.725Z,93999.22
2023-01-17T13:52:12.299Z,93996.44
2023-01-17T13:54:42.959Z,93995.97
2023-01-17T13:57:27.896Z,93998.66
2023-01-17T13:59:57.088Z,93995.41
2023-01-17T14:02:32.844Z,93996.53
2023-01-17T14:05:08.313Z,93994.72
2023-01-17T14:07:36.167Z,93986.34
2023-01-17T14:10:21.849Z,93982.84
2023-01-17T14:12:49.043Z,93977.72
2023-01-17T14:15:20.633Z,93984.47
2023-01-17T14:17:52.535Z,93984.66
2023-01-17T14:20:25.538Z,93979.28
2023-01-17T14:23:00.379Z,93966.38
2023-01-17T14:25:31.788Z,93964.53
2023-01-17T14:28:00.849Z,93961.13
2023-01-17T14:30:34.902Z,93939.59
2023-01-17T14:33:08.846Z,93939.91
2023-01-17T14:35:41.272Z,93934.38
2023-01-17T14:38:22.550Z,93931.44
2023-01-17T14:41:00.273Z,93928.94
2023-01-17T14:43:28.748Z,93917.72
2023-01-17T14:46:24.670Z,93914.09
2023-01-17T14:49:12.527Z,93919.94
2023-01-17T14:51:39.504Z,93913.13
2023-01-17T14:54:18.815Z,93912.63
2023-01-17T14:56:46.838Z,93925.59
2023-01-17T14:59:16.926Z,93932.25
2023-01-17T15:01:55.186Z,93930.41
2023-01-17T15:04:39.471Z,93931.66
2023-01-17T15:07:06.894Z,93915.56
2023-01-17T15:09:35.639Z,93915.16
2023-01-17T15:12:05.397Z,93911.09
2023-01-17T15:14:34.496Z,93902.41
2023-01-17T15:17:12.791Z,93901.16
2023-01-17T15:19:48.219Z,93897.06
2023-01-17T15:22:15.219Z,93887.41
2023-01-17T15:24:44.522Z,93890.88
2023-01-17T15:27:15.428Z,93879.28
2023-01-17T15:29:43.047Z,93881.66
2023-01-17T15:32:20.586Z,93886.44
2023-01-17T15:34:48.257Z,93885.41
2023-01-17T15:37:24.320Z,93881.53
2023-01-17T15:39:51.251Z,93884.44
2023-01-17T15:42:26.474Z,93875.72
2023-01-17T15:44:58.396Z,93872.13
2023-01-17T15:47:38.608Z,93879.91
2023-01-17T15:50:21.196Z,93872.22
2023-01-17T15:52:52.075Z,93874.09
2023-01-17T15:55:38.193Z,93884.38
2023-01-17T15:58:20.590Z,93886.44
2023-01-17T16:00:47.760Z,93891.03
2023-01-17T16:03:21.228Z,93872.06
2023-01-17T16:05:48.649Z,93863.13
2023-01-17T16:08:16.436Z,93870.56
2023-01-17T16:10:43.660Z,93859.41
2023-01-17T16:13:11.814Z,93860.03
2023-01-17T16:15:39.878Z,93860.25
2023-01-17T16:18:18.218Z,93854.13
2023-01-17T16:20:55.644Z,93857.88
2023-01-17T16:23:23.216Z,93860.44
2023-01-17T16:25:50.159Z,93854.06
2023-01-17T16:28:17.106Z,93853.44
2023-01-17T16:30:44.650Z,93843.91
2023-01-17T16:33:12.189Z,93848.03
2023-01-17T16:35:40.093Z,93844.22
2023-01-17T16:38:09.978Z,93833.94
2023-01-17T16:40:41.859Z,93841.75
2023-01-17T16:43:09.445Z,93844.16
2023-01-17T16:45:44.208Z,93852.22
2023-01-17T16:48:12.696Z,93845.56
2023-01-17T16:50:48.009Z,93838.22
2023-01-17T16:53:15.606Z,93834.81
2023-01-17T16:55:42.743Z,93836.19
2023-01-17T16:58:09.682Z,93837.56
2023-01-17T17:00:36.647Z,93838.66
2023-01-17T17:03:03.624Z,93837.94
2023-01-17T17:05:33.494Z,93844.44
2023-01-17T17:08:00.928Z,93854.06
2023-01-17T17:10:27.970Z,93849.66
2023-01-17T17:12:54.959Z,93848.53
2023-01-17T17:15:21.958Z,93857.09
2023-01-17T17:17:49.955Z,93853.50
2023-01-17T17:20:17.589Z,93851.91
2023-01-17T17:22:44.700Z,93851.25
2023-01-17T17:25:16.038Z,93860.22
2023-01-17T17:27:43.037Z,93860.84
2023-01-17T17:30:10.643Z,93857.72
2023-01-17T17:32:37.551Z,93859.91
2023-01-17T17:35:05.274Z,93871.28
2023-01-17T17:37:32.290Z,93874.88
2023-01-17T17:39:59.221Z,93875.00
2023-01-17T17:42:26.437Z,93872.81
2023-01-17T17:44:53.715Z,93880.28
2023-01-17T17:47:20.693Z,93880.72
2023-01-17T17:49:47.651Z,93886.63
2023-01-17T17:52:14.645Z,93887.53
2023-01-17T17:54:41.601Z,93892.09
2023-01-17T17:57:08.815Z,93899.16
2023-01-17T17:59:35.779Z,93906.03
2023-01-17T18:02:02.732Z,93904.19
2023-01-17T18:04:29.862Z,93912.84
2023-01-17T18:06:59.823Z,93904.50
2023-01-17T18:09:26.808Z,93901.41
2023-01-17T18:11:53.808Z,93915.53
2023-01-17T18:14:23.960Z,93915.06
2023-01-17T18:16:51.003Z,93921.00
2023-01-17T18:19:23.404Z,93924.59
2023-01-17T18:21:51.405Z,93932.19
2023-01-17T18:24:22.452Z,93928.47
2023-01-17T18:26:52.462Z,93931.25
2023-01-17T18:29:20.897Z,93940.72
2023-01-17T18:31:50.139Z,93946.53
2023-01-17T18:34:21.204Z,93944.88
2023-01-17T18:36:48.144Z,93941.72
2023-01-17T18:39:18.412Z,93953.53
2023-01-17T18:41:45.484Z,93949.66
2023-01-17T18:44:12.531Z,93941.19
2023-01-17T18:46:40.405Z,93943.63
2023-01-17T18:49:07.678Z,93939.00
2023-01-17T18:51:34.760Z,93933.78
2023-01-17T18:54:05.888Z,93937.81
2023-01-17T18:56:34.287Z,93952.75
2023-01-17T18:59:01.606Z,93946.19
2023-01-17T19:01:30.049Z,93946.22
2023-01-17T19:03:59.074Z,93945.59
2023-01-17T19:06:34.347Z,93943.56
2023-01-17T19:09:01.402Z,93942.00
2023-01-17T19:11:28.713Z,93944.66
2023-01-17T19:13:55.802Z,93951.00
2023-01-17T19:16:24.749Z,93961.91
2023-01-17T19:18:52.389Z,93965.81
2023-01-17T19:21:21.124Z,93960.31
2023-01-17T19:23:48.376Z,93971.72
2023-01-17T19:26:17.262Z,93966.91
2023-01-17T19:28:45.016Z,93969.56
2023-01-17T19:31:13.697Z,93971.72
2023-01-17T19:33:42.257Z,93971.91
2023-01-17T19:36:11.728Z,93980.28
2023-01-17T19:38:38.711Z,93991.66
2023-01-17T19:41:10.302Z,93990.41
2023-01-17T19:43:37.452Z,93992.28
2023-01-17T19:46:04.624Z,93995.88
2023-01-17T19:48:31.592Z,94005.66
2023-01-17T19:51:09.929Z,93999.84
2023-01-17T19:53:37.299Z,94010.53
2023-01-17T19:56:08.491Z,94014.50
2023-01-17T19:58:35.540Z,94014.38
2023-01-17T20:01:14.424Z,94013.59
2023-01-17T20:03:43.740Z,94008.63
2023-01-17T20:06:11.935Z,94009.88
2023-01-17T20:08:38.942Z,94019.69
2023-01-17T20:11:13.485Z,94018.47
2023-01-17T20:13:41.236Z,94013.63
2023-01-17T20:16:09.634Z,94010.03
2023-01-17T20:18:36.698Z,94009.72
2023-01-17T20:21:17.270Z,93999.94
2023-01-17T20:23:45.023Z,94004.00
2023-01-17T20:26:12.072Z,94002.59
2023-01-17T20:28:40.057Z,93999.13
2023-01-17T20:31:09.061Z,93997.69
2023-01-17T20:33:36.564Z,93994.78
2023-01-17T20:36:10.582Z,93998.88
2023-01-17T20:38:44.571Z,94001.06
2023-01-17T20:41:16.096Z,93997.69
2023-01-17T20:43:43.512Z,93987.88
2023-01-17T20:46:10.921Z,93979.63
2023-01-17T20:48:42.362Z,93973.97
2023-01-17T20:51:10.701Z,93971.75
2023-01-17T20:53:38.436Z,93973.66
2023-01-17T20:56:05.844Z,93976.69
2023-01-17T20:58:34.134Z,93979.34
2023-01-17T21:01:01.223Z,93984.78
2023-01-17T21:03:33.763Z,93981.84
2023-01-17T21:06:01.868Z,93976.94
2023-01-17T21:08:29.834Z,93986.75
2023-01-17T21:10:56.770Z,93995.94
2023-01-17T21:13:24.072Z,93997.19
2023-01-17T21:15:52.025Z,93996.28
2023-01-17T21:18:19.765Z,93992.56
2023-01-17T21:20:47.048Z,93991.00
2023-01-17T21:23:20.251Z,93996.94
2023-01-17T21:25:57.186Z,93991.91
2023-01-17T21:28:29.530Z,93994.41
2023-01-17T21:30:56.789Z,93999.22
2023-01-17T21:33:24.454Z,93998.63
2023-01-17T21:35:51.440Z,94000.88
2023-01-17T21:38:18.542Z,93999.44
2023-01-17T21:40:45.906Z,93997.75
2023-01-17T21:43:13.075Z,93994.00
2023-01-17T21:45:41.019Z,94003.06
2023-01-17T21:48:12.155Z,94003.25
2023-01-17T21:50:39.348Z,94013.34
2023-01-17T21:53:06.822Z,94004.84
2023-01-17T21:55:52.824Z,93994.00
2023-01-17T21:58:38.331Z,93997.84
2023-01-17T22:01:11.051Z,94006.66
2023-01-17T22:03:38.200Z,94005.25
2023-01-17T22:06:05.231Z,94005.31
2023-01-17T22:08:33.482Z,94003.56
2023-01-17T22:11:08.034Z,94006.56
2023-01-17T22:13:36.395Z,94010.75
2023-01-17T22:16:05.616Z,94009.16
2023-01-17T22:18:38.235Z,94009.47
2023-01-17T22:21:07.240Z,94007.19
2023-01-17T22:23:34.445Z,94003.09
2023-01-17T22:26:03.182Z,94009.19
2023-01-17T22:28:32.057Z,94007.72
2023-01-17T22:31:17.124Z,94001.69
2023-01-17T22:33:47.606Z,94002.25
2023-01-17T22:36:17.128Z,94003.81
2023-01-17T22:38:44.834Z,93995.75
2023-01-17T22:41:13.545Z,93996.91
2023-01-17T22:43:42.548Z,94005.25
2023-01-17T22:46:11.051Z,94008.59
2023-01-17T22:48:38.548Z,94015.13
2023-01-17T22:51:06.755Z,94025.22
2023-01-17T22:53:33.794Z,94017.91
2023-01-17T22:56:03.498Z,94017.69
2023-01-17T22:58:30.684Z,94010.78
2023-01-17T23:01:10.279Z,94008.13
2023-01-17T23:03:37.435Z,94021.31
2023-01-17T23:06:13.845Z,94017.63
2023-01-17T23:08:42.547Z,94031.09
2023-01-17T23:11:41.814Z,94030.34
2023-01-17T23:14:30.932Z,94034.38
2023-01-17T23:17:17.494Z,94032.47
2023-01-17T23:19:54.676Z,94027.78
2023-01-17T23:22:26.982Z,94021.59
2023-01-17T23:24:58.029Z,94021.59
2023-01-17T23:27:54.986Z,94023.31
2023-01-17T23:30:40.799Z,94031.34
2023-01-17T23:33:12.381Z,94025.88
2023-01-17T23:35:42.085Z,94024.50
2023-01-17T23:38:26.029Z,94037.59
2023-01-17T23:41:17.728Z,94041.03
2023-01-17T23:43:44.683Z,94042.66
2023-01-17T23:46:12.252Z,94031.16
2023-01-17T23:48:39.162Z,94039.56
2023-01-17T23:51:08.983Z,94029.81
2023-01-17T23:53:36.805Z,94025.81
2023-01-17T23:56:15.145Z,94028.06
2023-01-17T23:58:42.109Z,94010.78
